Time;durP1;ratioP1;P1;durP2;ratioP2;P2;SDS_P1;SDS_P2;PMS_P1;PMS_P2;Temp;Humidity;BMP_temperature;BMP_pressure;BME280_temperature;BME280_humidity;BME280_pressure;Samples;Min_cycle;Max_cycle;Signal;HPM_P1;HPM_P2
2023/03/25 00:01:47;;;;;;;9.68;2.72;;;;;;;10.34;100.00;100084.59;5118288;28;20058;-66
2023/03/25 00:04:16;;;;;;;6.68;2.42;;;;;;;10.34;100.00;100082.72;5120761;28;20048;-66
2023/03/25 00:06:44;;;;;;;6.13;2.17;;;;;;;10.35;100.00;100080.81;5103565;28;20488;-64
2023/03/25 00:09:12;;;;;;;9.85;2.92;;;;;;;10.33;100.00;100089.25;5097917;28;20492;-65
2023/03/25 00:11:40;;;;;;;9.15;3.03;;;;;;;10.34;100.00;100077.28;5114724;28;20075;-65
2023/03/25 00:14:08;;;;;;;7.90;2.70;;;;;;;10.35;100.00;100097.13;5118538;28;20055;-66
2023/03/25 00:16:36;;;;;;;7.38;2.75;;;;;;;10.32;100.00;100093.06;5115069;28;20048;-65
2023/03/25 00:19:05;;;;;;;8.73;2.58;;;;;;;10.31;100.00;100091.44;5115777;27;20048;-65
2023/03/25 00:21:33;;;;;;;10.30;3.03;;;;;;;10.30;99.96;100094.47;5116173;28;20044;-65
2023/03/25 00:24:01;;;;;;;9.23;2.67;;;;;;;10.32;99.17;100094.97;5114406;28;20050;-65
2023/03/25 00:26:28;;;;;;;9.38;2.97;;;;;;;10.31;98.88;100096.06;5114443;28;20051;-66
2023/03/25 00:28:56;;;;;;;11.63;2.83;;;;;;;10.33;98.52;100093.88;5113883;27;20044;-65
2023/03/25 00:31:24;;;;;;;10.75;2.92;;;;;;;10.33;98.91;100091.97;5077623;28;20059;-66
2023/03/25 00:33:52;;;;;;;12.30;3.10;;;;;;;10.30;98.29;100095.28;5093664;28;20469;-66
2023/03/25 00:36:19;;;;;;;9.52;2.90;;;;;;;10.30;98.11;100086.28;5077181;28;20143;-66
2023/03/25 00:38:48;;;;;;;8.73;2.47;;;;;;;10.30;99.96;100083.56;5093799;28;20510;-67
2023/03/25 00:41:24;;;;;;;10.95;2.95;;;;;;;10.30;98.39;100094.47;5093033;28;20511;-65
2023/03/25 00:43:56;;;;;;;8.75;2.53;;;;;;;10.31;98.59;100093.34;5114464;28;20377;-66
2023/03/25 00:46:26;;;;;;;10.27;2.80;;;;;;;10.31;98.23;100085.19;5114602;28;20128;-66
2023/03/25 00:48:54;;;;;;;10.20;2.80;;;;;;;10.28;97.11;100085.72;5113762;28;20079;-65
2023/03/25 00:51:23;;;;;;;9.45;2.70;;;;;;;10.23;96.96;100087.38;5085047;28;20040;-65
2023/03/25 00:53:52;;;;;;;8.52;2.33;;;;;;;10.24;97.26;100086.28;5093094;28;20118;-65
2023/03/25 00:56:24;;;;;;;7.32;2.65;;;;;;;10.27;96.54;100092.25;5093773;28;20056;-65
2023/03/25 00:58:52;;;;;;;9.65;3.40;;;;;;;10.24;95.82;100086.28;5094653;28;20048;-65
2023/03/25 01:01:22;;;;;;;7.70;2.70;;;;;;;10.22;96.71;100085.78;5095753;27;20051;-65
2023/03/25 01:03:56;;;;;;;9.93;2.72;;;;;;;10.24;96.22;100090.91;5093390;28;20060;-65
2023/03/25 01:06:27;;;;;;;9.70;2.90;;;;;;;10.23;96.64;100090.09;5093140;28;20054;-65
2023/03/25 01:08:57;;;;;;;11.25;2.78;;;;;;;10.21;96.05;100095.00;5094806;28;20063;-65
2023/03/25 01:11:33;;;;;;;10.10;2.95;;;;;;;10.18;96.02;100092.88;5081698;28;20040;-65
2023/03/25 01:14:01;;;;;;;;;;;;;;;10.19;96.50;100088.22;5115601;28;20108;-65
2023/03/25 01:16:29;;;;;;;8.52;2.45;;;;;;;10.23;96.54;100087.38;5096611;28;19926;-65
2023/03/25 01:18:57;;;;;;;9.63;2.80;;;;;;;10.19;95.96;100085.50;5113484;28;20054;-65
2023/03/25 01:21:25;;;;;;;7.82;2.50;;;;;;;10.16;96.96;100088.81;5062738;27;20047;-66
2023/03/25 01:23:53;;;;;;;6.68;2.30;;;;;;;10.18;96.90;100083.91;5093660;28;20052;-65
2023/03/25 01:26:20;;;;;;;9.05;2.45;;;;;;;10.16;96.98;100086.88;5093499;28;20492;-66
2023/03/25 01:28:48;;;;;;;9.65;2.70;;;;;;;10.16;98.04;100073.28;5098025;28;20048;-65
2023/03/25 01:31:16;;;;;;;5.15;2.20;;;;;;;10.16;99.39;100076.00;5106770;28;20056;-65
2023/03/25 01:33:44;;;;;;;8.70;2.90;;;;;;;10.14;97.73;100086.34;5090232;28;20487;-64
2023/03/25 01:36:11;;;;;;;6.40;2.15;;;;;;;10.07;98.42;100080.41;5097270;28;20044;-64
2023/03/25 01:38:40;;;;;;;7.40;2.63;;;;;;;10.08;98.93;100078.50;5099356;28;20044;-65
2023/03/25 01:41:09;;;;;;;8.15;2.60;;;;;;;10.13;100.00;100070.31;5105529;28;20070;-69
2023/03/25 01:43:37;;;;;;;7.68;2.45;;;;;;;10.11;99.67;100083.41;5108899;28;20093;-66
2023/03/25 01:46:04;;;;;;;4.68;1.85;;;;;;;10.07;99.96;100094.03;5095170;28;20059;-66
2023/03/25 01:48:36;;;;;;;9.25;2.60;;;;;;;10.02;100.00;100080.47;5093707;28;20048;-66
2023/03/25 01:51:19;;;;;;;7.60;2.42;;;;;;;10.03;100.00;100090.25;5093481;28;20036;-65
2023/03/25 01:53:47;;;;;;;8.32;2.67;;;;;;;9.98;100.00;100088.38;5093701;28;20072;-66
2023/03/25 01:56:18;;;;;;;7.90;2.55;;;;;;;9.96;100.00;100084.31;5077233;28;20135;-65
2023/03/25 01:58:47;;;;;;;6.43;2.45;;;;;;;9.94;100.00;100075.63;5093916;28;20469;-65
2023/03/25 02:01:17;;;;;;;7.68;2.35;;;;;;;9.99;100.00;100081.03;5077824;28;20140;-65
2023/03/25 02:04:01;;;;;;;6.97;2.13;;;;;;;9.94;100.00;100064.75;5095165;28;20028;-65
2023/03/25 02:06:38;;;;;;;8.10;2.58;;;;;;;9.92;100.00;100061.47;5092546;28;20039;-65
2023/03/25 02:09:07;;;;;;;6.10;2.25;;;;;;;9.94;100.00;100060.09;5043638;28;20052;-65
2023/03/25 02:11:35;;;;;;;8.75;2.58;;;;;;;9.91;100.00;100071.56;5092939;28;20077;-64
2023/03/25 02:14:07;;;;;;;9.35;2.50;;;;;;;9.87;100.00;100077.84;5093295;28;20492;-66
2023/03/25 02:16:47;;;;;;;6.75;2.08;;;;;;;9.87;100.00;100075.13;5077116;28;20044;-65
2023/03/25 02:19:31;;;;;;;5.72;2.20;;;;;;;9.85;100.00;100069.16;5092998;28;20086;-64
2023/03/25 02:22:13;;;;;;;7.03;2.35;;;;;;;9.84;100.00;100062.91;5076282;28;20040;-65
2023/03/25 02:25:26;;;;;;;6.78;2.00;;;;;;;9.88;100.00;100060.41;5093108;28;20067;-65
2023/03/25 02:28:28;;;;;;;6.05;1.85;;;;;;;9.93;100.00;100069.38;5075839;28;20044;-69
2023/03/25 02:31:24;;;;;;;8.05;2.78;;;;;;;9.92;100.00;100066.91;5059796;28;20040;-66
2023/03/25 02:34:05;;;;;;;5.93;2.22;;;;;;;9.85;100.00;100061.78;5075121;28;20086;-66
2023/03/25 02:36:42;;;;;;;6.65;2.55;;;;;;;9.82;100.00;100074.06;5093985;28;20046;-65
2023/03/25 02:39:13;;;;;;;6.22;2.20;;;;;;;9.87;100.00;100062.31;5093077;28;20048;-65
2023/03/25 02:41:50;;;;;;;10.32;2.58;;;;;;;9.82;100.00;100063.16;5095013;28;20044;-65
2023/03/25 02:44:40;;;;;;;7.43;2.55;;;;;;;9.77;100.00;100068.66;5079304;28;20409;-65
2023/03/25 02:47:16;;;;;;;8.00;2.60;;;;;;;9.72;100.00;100060.50;5091018;28;20074;-66
2023/03/25 02:49:57;;;;;;;6.60;2.45;;;;;;;9.68;100.00;100056.72;5095745;28;20040;-66
2023/03/25 02:52:27;;;;;;;7.60;2.40;;;;;;;9.68;100.00;100064.88;5081268;28;20047;-66
2023/03/25 02:55:00;;;;;;;8.32;2.60;;;;;;;9.70;100.00;100057.25;5115755;28;20411;-65
2023/03/25 02:57:31;;;;;;;6.57;2.08;;;;;;;9.68;100.00;100039.59;5116674;28;20048;-64
2023/03/25 02:59:59;;;;;;;6.70;2.35;;;;;;;9.74;100.00;100039.28;5116473;28;20036;-65
2023/03/25 03:02:31;;;;;;;7.18;2.40;;;;;;;9.72;100.00;100038.75;5099078;28;20138;-65
2023/03/25 03:04:59;;;;;;;8.00;2.65;;;;;;;9.74;100.00;100039.28;5091507;28;20511;-65
2023/03/25 03:07:33;;;;;;;6.75;2.22;;;;;;;9.76;100.00;100037.06;5095823;28;20063;-65
2023/03/25 03:10:24;;;;;;;7.70;2.28;;;;;;;9.74;100.00;100039.28;5078746;28;20123;-65
2023/03/25 03:13:02;;;;;;;6.93;2.63;;;;;;;9.77;100.00;100033.28;5095210;28;20047;-66
2023/03/25 03:15:36;;;;;;;5.82;2.05;;;;;;;9.74;100.00;100039.28;5098135;27;20076;-66
2023/03/25 03:18:25;;;;;;;10.75;2.97;;;;;;;9.68;100.00;100051.28;5095493;28;20044;-65
2023/03/25 03:20:59;;;;;;;6.80;2.53;;;;;;;9.67;100.00;100046.94;5095370;28;20094;-66
2023/03/25 03:23:35;;;;;;;6.03;2.08;;;;;;;9.69;100.00;100042.03;5095195;28;20101;-65
2023/03/25 03:26:12;;;;;;;9.05;2.83;;;;;;;9.68;100.00;100045.84;5095722;27;20207;-65
2023/03/25 03:28:44;;;;;;;9.00;2.80;;;;;;;9.70;100.00;100043.66;5095128;28;20052;-65
2023/03/25 03:31:24;;;;;;;8.18;2.30;;;;;;;9.64;100.00;100050.22;5095951;27;20110;-65
2023/03/25 03:34:33;;;;;;;6.45;2.08;;;;;;;9.68;100.00;100059.44;5095050;28;20059;-65
2023/03/25 03:37:02;;;;;;;9.02;2.60;;;;;;;9.73;100.00;100053.16;5078744;28;20166;-65
2023/03/25 03:39:35;;;;;;;9.13;2.70;;;;;;;9.63;100.00;100050.50;5095980;28;20072;-66
2023/03/25 03:42:27;;;;;;;9.60;2.60;;;;;;;9.58;100.00;100051.34;5097950;28;20051;-66
2023/03/25 03:45:00;;;;;;;7.10;2.40;;;;;;;9.57;100.00;100055.16;5096896;28;20072;-65
2023/03/25 03:47:31;;;;;;;8.32;2.67;;;;;;;9.54;100.00;100056.53;5096405;28;20048;-65
2023/03/25 03:50:05;;;;;;;8.10;2.58;;;;;;;9.52;100.00;100053.25;5093911;27;20167;-67
2023/03/25 03:52:36;;;;;;;9.23;2.80;;;;;;;9.52;100.00;100047.00;5115678;28;20058;-66
2023/03/25 03:55:12;;;;;;;9.55;2.70;;;;;;;9.56;100.00;100054.34;5115496;28;20043;-65
2023/03/25 03:57:51;;;;;;;9.55;2.72;;;;;;;9.55;100.00;100039.13;5122029;28;20092;-64
2023/03/25 04:00:24;;;;;;;10.10;3.00;;;;;;;9.54;100.00;100044.84;5098915;28;20131;-65
2023/03/25 04:03:14;;;;;;;11.50;2.70;;;;;;;9.53;100.00;100043.22;5116331;27;20047;-65
2023/03/25 04:05:46;;;;;;;9.60;2.65;;;;;;;9.55;100.00;100041.84;5098219;28;20052;-66
2023/03/25 04:09:05;;;;;;;9.07;2.60;;;;;;;9.55;100.00;100041.03;5115384;28;20399;-66
2023/03/25 04:11:40;;;;;;;9.98;3.15;;;;;;;9.53;100.00;100040.50;5111902;27;20992;-65
2023/03/25 04:14:09;;;;;;;10.73;2.80;;;;;;;9.51;100.00;100039.97;5116282;28;20138;-65
2023/03/25 04:16:36;;;;;;;10.70;2.65;;;;;;;9.52;100.00;100041.56;5114770;28;20039;-66
2023/03/25 04:19:05;;;;;;;9.80;2.67;;;;;;;9.50;100.00;100047.31;5115409;28;20093;-66
2023/03/25 04:21:33;;;;;;;7.72;2.40;;;;;;;9.51;100.00;100037.25;5122303;28;20046;-68
2023/03/25 04:24:00;;;;;;;8.93;2.95;;;;;;;9.59;100.00;100039.38;5084896;28;20137;-65
2023/03/25 04:26:32;;;;;;;8.85;2.72;;;;;;;9.58;100.00;100043.19;5123475;28;20095;-66
2023/03/25 04:29:01;;;;;;;9.10;2.90;;;;;;;9.66;100.00;100037.16;5119183;28;20048;-66
2023/03/25 04:31:30;;;;;;;8.45;2.60;;;;;;;9.65;100.00;100042.88;5119893;28;20545;-66
2023/03/25 04:33:59;;;;;;;9.82;2.80;;;;;;;9.62;100.00;100041.53;5104383;27;20048;-65
2023/03/25 04:36:36;;;;;;;7.82;2.45;;;;;;;9.61;100.00;100045.34;5109798;28;20488;-65
2023/03/25 04:39:04;;;;;;;7.20;2.22;;;;;;;9.58;100.00;100045.91;5114926;28;20058;-66
2023/03/25 04:41:32;;;;;;;10.90;2.85;;;;;;;9.58;100.00;100054.06;5114169;28;20054;-67
2023/03/25 04:44:00;;;;;;;8.18;2.90;;;;;;;9.54;100.00;100044.84;5096780;28;20048;-67
2023/03/25 04:46:28;;;;;;;7.18;2.60;;;;;;;9.54;100.00;100051.06;5114051;28;20052;-67
2023/03/25 04:48:55;;;;;;;6.07;2.72;;;;;;;9.60;100.00;100043.72;5115213;28;20044;-67
2023/03/25 04:51:23;;;;;;;6.40;2.30;;;;;;;9.53;100.00;100043.22;5097604;28;20040;-65
2023/03/25 04:53:51;;;;;;;7.60;2.33;;;;;;;9.52;100.00;100038.84;5115553;28;20054;-66
2023/03/25 04:56:18;;;;;;;7.60;2.42;;;;;;;9.47;100.00;100033.44;5082848;28;20512;-66
2023/03/25 04:58:46;;;;;;;9.75;3.03;;;;;;;9.52;100.00;100036.94;5094675;28;20044;-65
2023/03/25 05:01:36;;;;;;;6.30;2.20;;;;;;;9.46;100.00;100037.28;5075697;28;20105;-66
2023/03/25 05:04:05;;;;;;;8.30;2.85;;;;;;;9.47;100.00;100036.16;5090908;28;20087;-65
2023/03/25 05:06:34;;;;;;;8.73;2.47;;;;;;;9.43;100.00;100032.38;5102384;28;20395;-65
2023/03/25 05:09:03;;;;;;;8.18;2.47;;;;;;;9.51;100.00;100039.97;5112081;28;20043;-66
2023/03/25 05:11:34;;;;;;;9.82;2.28;;;;;;;9.50;100.00;100039.16;5112492;28;20489;-65
2023/03/25 05:14:02;;;;;;;9.85;2.58;;;;;;;9.46;100.00;100042.72;5111412;28;20051;-66
2023/03/25 05:16:30;;;;;;;8.13;2.60;;;;;;;9.41;100.00;100053.63;5111997;28;20458;-65
2023/03/25 05:18:58;;;;;;;6.25;2.15;;;;;;;9.35;100.00;100037.31;5111755;28;20463;-65
2023/03/25 05:21:26;;;;;;;6.28;2.63;;;;;;;9.39;100.00;100046.53;5115134;28;20039;-65
2023/03/25 05:23:53;;;;;;;5.85;2.40;;;;;;;9.34;100.00;100040.31;5114608;28;20047;-66
2023/03/25 05:26:21;;;;;;;8.75;2.90;;;;;;;9.35;100.00;100047.38;5100306;27;20051;-67
2023/03/25 05:28:50;;;;;;;8.93;2.83;;;;;;;9.32;100.00;100047.94;5092619;28;20050;-65
2023/03/25 05:31:18;;;;;;;8.05;2.97;;;;;;;9.29;100.00;100054.75;5095001;28;20040;-65
2023/03/25 05:33:46;;;;;;;7.93;2.70;;;;;;;9.25;100.00;100047.41;5114143;28;20047;-65
2023/03/25 05:36:15;;;;;;;12.57;3.00;;;;;;;9.23;100.00;100050.41;5095882;28;20109;-65
2023/03/25 05:38:43;;;;;;;7.50;2.70;;;;;;;9.21;100.00;100060.75;5094998;27;20054;-66
2023/03/25 05:41:15;;;;;;;8.13;2.55;;;;;;;9.23;100.00;100072.16;5100584;28;20403;-66
2023/03/25 05:43:46;;;;;;;6.82;2.63;;;;;;;9.25;100.00;100069.16;5112292;28;20395;-65
2023/03/25 05:46:14;;;;;;;12.82;3.17;;;;;;;9.27;100.00;100075.94;5114221;28;20097;-65
2023/03/25 05:48:42;;;;;;;11.85;2.88;;;;;;;9.33;100.00;100071.28;5099378;27;20087;-65
2023/03/25 05:51:20;;;;;;;9.52;2.55;;;;;;;9.31;100.00;100068.06;5093467;28;20049;-66
2023/03/25 05:53:48;;;;;;;12.35;3.30;;;;;;;9.22;100.00;100080.59;5093600;28;20080;-65
2023/03/25 05:56:18;;;;;;;9.18;2.83;;;;;;;9.20;100.00;100072.72;5092403;28;20048;-64
2023/03/25 05:58:47;;;;;;;9.75;3.10;;;;;;;9.17;100.00;100076.00;5094555;28;20467;-65
2023/03/25 06:01:15;;;;;;;11.55;2.78;;;;;;;9.20;100.00;100072.72;5091791;28;20048;-65
2023/03/25 06:04:00;;;;;;;11.20;3.10;;;;;;;9.23;100.00;100066.72;5092448;28;20051;-65
2023/03/25 06:06:29;;;;;;;9.90;2.70;;;;;;;9.21;100.00;100068.88;5075002;28;20084;-64
2023/03/25 06:08:57;;;;;;;9.07;2.70;;;;;;;9.25;100.00;100072.69;5091684;28;20131;-66
2023/03/25 06:11:25;;;;;;;10.13;2.60;;;;;;;9.25;100.00;100069.97;5092943;28;20044;-67
2023/03/25 06:13:52;;;;;;;8.80;2.67;;;;;;;9.27;100.00;100073.22;5092080;28;20083;-66
2023/03/25 06:16:28;;;;;;;11.13;3.35;;;;;;;9.25;100.00;100080.84;5095110;28;20052;-65
2023/03/25 06:18:58;;;;;;;7.47;2.80;;;;;;;9.26;100.00;100077.06;5097575;27;20051;-65
2023/03/25 06:21:29;;;;;;;12.32;3.00;;;;;;;9.26;100.00;100081.66;5116326;28;20043;-66
2023/03/25 06:23:58;;;;;;;10.98;3.03;;;;;;;9.27;100.00;100075.16;5117497;28;20051;-65
2023/03/25 06:26:26;;;;;;;12.88;3.08;;;;;;;9.21;100.00;100084.38;5117540;28;20761;-64
2023/03/25 06:28:54;;;;;;;10.45;2.97;;;;;;;9.14;100.00;100082.00;5116210;28;20035;-64
2023/03/25 06:31:27;;;;;;;12.95;3.47;;;;;;;9.12;100.00;100081.44;5097550;28;20040;-64
2023/03/25 06:33:55;;;;;;;12.65;3.08;;;;;;;9.13;100.00;100088.50;5096404;28;20048;-65
2023/03/25 06:36:24;;;;;;;9.82;3.17;;;;;;;9.18;100.00;100091.19;5097554;28;20131;-67
2023/03/25 06:38:52;;;;;;;13.85;3.90;;;;;;;9.08;100.00;100085.81;5096399;28;20042;-66
2023/03/25 06:41:24;;;;;;;15.50;3.55;;;;;;;9.00;100.00;100098.06;5094401;28;20046;-64
2023/03/25 06:44:10;;;;;;;10.75;3.15;;;;;;;8.99;100.00;100098.31;5106735;28;20132;-65
2023/03/25 06:46:46;;;;;;;16.15;3.47;;;;;;;8.99;100.00;100093.69;5095908;28;20054;-65
2023/03/25 06:49:23;;;;;;;12.63;3.58;;;;;;;9.02;100.00;100081.47;5097085;28;20044;-65
2023/03/25 06:51:53;;;;;;;10.35;3.10;;;;;;;9.14;100.00;100109.16;5103379;27;20048;-65
2023/03/25 06:54:21;;;;;;;15.88;3.33;;;;;;;9.25;100.00;100091.72;5117207;28;20049;-64
2023/03/25 06:56:49;;;;;;;11.50;3.70;;;;;;;9.35;100.00;100097.13;5115773;28;20438;-65
2023/03/25 06:59:17;;;;;;;10.93;3.35;;;;;;;9.35;100.00;100093.59;5117284;28;20048;-66
2023/03/25 07:01:45;;;;;;;9.98;3.10;;;;;;;9.29;100.00;100103.69;5108418;28;20069;-65
2023/03/25 07:04:12;;;;;;;10.20;2.90;;;;;;;9.28;100.00;100110.19;5109178;27;20048;-65
2023/03/25 07:06:40;;;;;;;13.07;3.40;;;;;;;9.25;100.00;100105.31;5099811;28;20103;-66
2023/03/25 07:09:08;;;;;;;11.30;3.17;;;;;;;9.25;100.00;100097.16;5104282;28;20067;-66
2023/03/25 07:11:37;;;;;;;14.73;3.72;;;;;;;9.24;100.00;100095.53;5073654;28;20032;-67
2023/03/25 07:14:04;;;;;;;13.02;3.60;;;;;;;9.25;100.00;100091.72;5087244;28;20056;-67
2023/03/25 07:16:32;;;;;;;15.23;3.97;;;;;;;9.20;100.00;100097.19;5116706;27;20053;-66
2023/03/25 07:19:00;;;;;;;16.15;4.30;;;;;;;9.17;100.00;100089.59;5115903;27;20044;-66
2023/03/25 07:21:28;;;;;;;13.27;3.83;;;;;;;9.16;100.00;100087.94;5116948;28;20036;-66
2023/03/25 07:23:55;;;;;;;13.68;4.13;;;;;;;9.14;100.00;100095.56;5116913;28;20079;-66
2023/03/25 07:26:23;;;;;;;12.23;3.92;;;;;;;9.16;100.00;100094.22;5098896;28;20043;-66
2023/03/25 07:28:51;;;;;;;15.70;4.28;;;;;;;9.16;100.00;100112.41;5115069;28;20079;-66
2023/03/25 07:31:19;;;;;;;12.68;3.83;;;;;;;9.14;100.00;100111.88;5094861;27;20422;-65
2023/03/25 07:33:47;;;;;;;13.80;3.72;;;;;;;9.16;100.00;100105.09;5096155;27;20063;-65
2023/03/25 07:36:15;;;;;;;15.43;3.88;;;;;;;9.24;100.00;100116.47;5097003;28;20044;-66
2023/03/25 07:38:45;;;;;;;11.70;3.80;;;;;;;9.31;100.00;100112.38;5097325;28;20052;-65
2023/03/25 07:41:12;;;;;;;13.82;3.50;;;;;;;9.29;100.00;100114.53;5099570;28;20075;-66
2023/03/25 07:43:51;;;;;;;17.30;4.35;;;;;;;9.34;100.00;100121.88;5087324;28;20487;-65
2023/03/25 07:46:25;;;;;;;13.52;3.92;;;;;;;9.32;100.00;100121.34;5096317;28;20040;-66
2023/03/25 07:48:53;;;;;;;12.95;3.40;;;;;;;9.36;100.00;100125.94;5091568;28;20052;-64
2023/03/25 07:51:20;;;;;;;11.70;3.60;;;;;;;9.30;100.00;100127.03;5112307;28;20076;-67
2023/03/25 07:53:48;;;;;;;12.98;3.65;;;;;;;9.30;100.00;100128.94;5120906;27;20044;-67
2023/03/25 07:56:15;;;;;;;17.40;5.15;;;;;;;9.34;100.00;100127.31;5129253;28;20056;-67
2023/03/25 07:58:44;;;;;;;15.80;4.15;;;;;;;9.30;100.00;100127.03;5106143;28;20071;-67
2023/03/25 08:01:12;;;;;;;22.13;5.70;;;;;;;9.34;100.00;100119.97;5115343;28;20062;-64
2023/03/25 08:03:39;;;;;;;17.17;4.20;;;;;;;9.28;100.00;100129.22;5118933;28;20376;-66
2023/03/25 08:06:07;;;;;;;18.52;4.72;;;;;;;9.31;100.00;100127.88;5118051;27;20388;-65
2023/03/25 08:08:35;;;;;;;14.63;4.22;;;;;;;9.24;100.00;100144.47;5098333;28;20130;-66
2023/03/25 08:11:03;;;;;;;18.90;4.50;;;;;;;9.34;100.00;100132.75;5116248;28;20078;-66
2023/03/25 08:13:31;;;;;;;17.58;4.85;;;;;;;9.41;100.00;100141.44;5114133;28;20138;-66
2023/03/25 08:15:59;;;;;;;21.75;5.40;;;;;;;9.42;100.00;100140.31;5115151;28;20138;-65
2023/03/25 08:18:26;;;;;;;18.15;5.03;;;;;;;9.36;100.00;100141.44;5115644;27;20075;-65
2023/03/25 08:20:54;;;;;;;16.95;4.22;;;;;;;9.37;100.00;100137.63;5114741;28;20065;-65
2023/03/25 08:23:22;;;;;;;17.67;4.63;;;;;;;9.37;100.00;100157.47;5115644;28;20050;-65
2023/03/25 08:25:50;;;;;;;17.70;5.40;;;;;;;9.50;100.00;100158.81;5080782;28;20048;-66
2023/03/25 08:28:23;;;;;;;18.17;4.75;;;;;;;9.33;100.00;100161.84;5114803;28;20394;-65
2023/03/25 08:30:54;;;;;;;19.25;4.65;;;;;;;9.22;100.00;100157.50;5098315;28;20036;-65
2023/03/25 08:33:32;;;;;;;17.58;4.80;;;;;;;9.19;100.00;100160.78;5114951;28;20047;-65
2023/03/25 08:36:01;;;;;;;14.57;4.28;;;;;;;9.17;100.00;100165.69;5082948;28;20130;-65
2023/03/25 08:38:30;;;;;;;13.75;3.88;;;;;;;9.26;100.00;100172.19;5106761;27;20046;-64
2023/03/25 08:41:01;;;;;;;21.27;4.97;;;;;;;9.36;100.00;100163.19;5096673;27;20048;-66
2023/03/25 08:43:29;;;;;;;15.25;4.32;;;;;;;9.42;100.00;100172.16;5094111;28;20048;-65
2023/03/25 08:45:57;;;;;;;17.02;4.55;;;;;;;9.39;100.00;100182.47;5077644;28;20051;-65
2023/03/25 08:48:25;;;;;;;17.27;4.45;;;;;;;9.41;100.00;100178.69;5094482;28;20052;-65
2023/03/25 08:50:53;;;;;;;15.55;3.65;;;;;;;9.37;100.00;100179.22;5077097;28;20117;-64
2023/03/25 08:53:20;;;;;;;20.30;5.28;;;;;;;9.45;100.00;100185.19;5096357;28;20101;-66
2023/03/25 08:55:56;;;;;;;16.88;3.80;;;;;;;9.43;100.00;100174.59;5114111;28;20048;-66
2023/03/25 08:58:24;;;;;;;16.38;4.75;;;;;;;9.39;100.00;100174.31;5097368;28;20043;-66
2023/03/25 09:00:54;;;;;;;16.10;5.03;;;;;;;9.39;100.00;100171.59;5113836;28;20070;-66
2023/03/25 09:03:23;;;;;;;16.27;4.57;;;;;;;9.31;100.00;100174.91;5096657;28;20048;-66
2023/03/25 09:05:50;;;;;;;18.13;3.92;;;;;;;9.32;100.00;100173.00;5076643;28;20117;-66
2023/03/25 09:08:19;;;;;;;14.48;4.60;;;;;;;9.41;100.00;100171.34;5092898;28;20109;-66
2023/03/25 09:10:47;;;;;;;14.82;4.25;;;;;;;9.42;100.00;100177.59;5093775;28;20068;-66
2023/03/25 09:13:15;;;;;;;26.98;8.43;;;;;;;9.43;100.00;100171.88;5093659;28;20119;-65
2023/03/25 09:15:44;;;;;;;16.80;4.85;;;;;;;9.45;100.00;100166.94;5093378;28;20072;-66
2023/03/25 09:18:11;;;;;;;19.00;5.32;;;;;;;9.51;100.00;100162.34;5077308;28;20113;-65
2023/03/25 09:20:40;;;;;;;17.50;4.72;;;;;;;9.56;100.00;100162.31;5076533;28;20047;-65
2023/03/25 09:23:08;;;;;;;15.93;4.70;;;;;;;9.57;100.00;100158.50;5107443;28;20042;-66
2023/03/25 09:25:37;;;;;;;17.95;4.65;;;;;;;9.63;100.00;100172.91;5112314;27;20082;-66
2023/03/25 09:28:05;;;;;;;22.08;5.63;;;;;;;9.69;100.00;100156.28;5112840;28;20048;-66
2023/03/25 09:30:32;;;;;;;24.27;6.63;;;;;;;9.77;100.00;100157.63;5111232;27;20052;-65
2023/03/25 09:33:00;;;;;;;21.90;5.35;;;;;;;9.86;100.00;100155.94;5108426;27;20052;-65
2023/03/25 09:35:28;;;;;;;23.30;5.43;;;;;;;9.90;100.00;100148.03;5079856;28;20075;-65
2023/03/25 09:37:55;;;;;;;18.63;5.18;;;;;;;9.87;100.00;100154.03;5102569;28;20048;-65
2023/03/25 09:40:24;;;;;;;23.90;5.88;;;;;;;9.82;100.00;100158.41;5092726;28;20051;-65
2023/03/25 09:43:00;;;;;;;25.45;6.38;;;;;;;9.92;100.00;100154.00;5094025;28;20131;-65
2023/03/25 09:45:35;;;;;;;18.70;5.53;;;;;;;9.94;100.00;100162.69;5095882;28;20047;-65
2023/03/25 09:48:23;;;;;;;20.45;7.53;;;;;;;9.94;100.00;100176.31;5096456;28;20086;-65
2023/03/25 09:50:53;;;;;;;27.58;6.30;;;;;;;10.00;100.00;100172.44;5097166;28;20048;-65
2023/03/25 09:53:58;;;;;;;20.15;5.88;;;;;;;10.02;100.00;100176.53;5094571;28;20066;-67
2023/03/25 09:56:28;;;;;;;19.73;5.33;;;;;;;10.02;100.00;100170.28;5116434;28;20052;-66
2023/03/25 09:59:06;;;;;;;23.45;4.93;;;;;;;9.95;100.00;100180.66;5099566;28;20082;-66
2023/03/25 10:01:45;;;;;;;26.13;5.82;;;;;;;9.94;100.00;100181.75;5093431;28;20124;-65
2023/03/25 10:04:44;;;;;;;18.05;4.72;;;;;;;9.91;100.00;100182.28;5105754;28;20067;-66
2023/03/25 10:07:25;;;;;;;18.30;4.63;;;;;;;9.89;100.00;100187.22;5099084;28;20131;-66
2023/03/25 10:10:11;;;;;;;22.63;5.63;;;;;;;9.94;100.00;100184.47;5094922;28;20044;-65
2023/03/25 10:13:14;;;;;;;20.60;5.30;;;;;;;9.96;100.00;100187.72;5092653;28;20048;-66
2023/03/25 10:16:09;;;;;;;20.35;5.10;;;;;;;9.90;100.00;100191.56;5091322;28;20051;-65
2023/03/25 10:18:52;;;;;;;20.35;5.55;;;;;;;9.86;100.00;100199.47;5095188;28;20048;-66
2023/03/25 10:21:54;;;;;;;19.92;5.10;;;;;;;9.87;100.00;100195.66;5096206;28;20065;-66
2023/03/25 10:24:52;;;;;;;19.95;5.07;;;;;;;9.90;100.00;100194.28;5043691;28;20058;-64
2023/03/25 10:27:41;;;;;;;21.42;5.10;;;;;;;9.86;100.00;100204.09;5105082;28;20115;-65
2023/03/25 10:30:17;;;;;;;18.17;4.47;;;;;;;9.86;100.00;100198.63;5059008;28;20048;-65
2023/03/25 10:32:49;;;;;;;20.58;5.35;;;;;;;9.93;100.00;100204.59;5092201;28;20078;-65
2023/03/25 10:35:29;;;;;;;21.85;5.30;;;;;;;9.96;100.00;100204.06;5106515;28;20046;-66
2023/03/25 10:38:06;;;;;;;18.77;4.80;;;;;;;9.94;100.00;100212.50;5112338;28;20054;-66
2023/03/25 10:40:50;;;;;;;14.77;4.15;;;;;;;10.02;100.00;100211.91;5096638;28;20128;-66
2023/03/25 10:43:28;;;;;;;15.30;3.70;;;;;;;9.90;100.00;100194.28;5112237;28;20220;-66
2023/03/25 10:46:17;;;;;;;17.23;4.40;;;;;;;9.97;100.00;100202.97;5112141;28;20050;-65
2023/03/25 10:48:46;;;;;;;16.15;4.40;;;;;;;10.01;100.00;100212.19;5090830;28;20101;-65
2023/03/25 10:51:17;;;;;;;24.48;5.03;;;;;;;9.97;100.00;100217.38;5076493;28;20040;-66
2023/03/25 10:53:48;;;;;;;23.15;5.82;;;;;;;9.91;100.00;100214.94;5075666;28;20139;-66
2023/03/25 10:56:20;;;;;;;20.88;5.63;;;;;;;9.85;100.00;100203.28;5109254;28;20092;-67
2023/03/25 10:58:52;;;;;;;22.70;5.80;;;;;;;9.84;100.00;100211.69;5133998;28;20150;-66
2023/03/25 11:01:40;;;;;;;19.73;5.47;;;;;;;10.00;100.00;100216.00;5133459;27;20452;-65
2023/03/25 11:04:11;;;;;;;24.40;5.88;;;;;;;10.10;100.00;100221.41;5137343;27;20043;-66
2023/03/25 11:06:44;;;;;;;23.42;5.18;;;;;;;10.10;100.00;100217.84;5130869;27;20086;-65
2023/03/25 11:09:19;;;;;;;22.13;5.25;;;;;;;10.06;100.00;100225.78;5115121;28;20487;-64
2023/03/25 11:11:47;;;;;;;23.48;5.25;;;;;;;10.07;100.00;100221.16;5078696;28;20044;-66
2023/03/25 11:14:16;;;;;;;15.95;4.55;;;;;;;10.10;100.00;100220.56;5095117;28;20059;-64
2023/03/25 11:16:51;;;;;;;22.23;5.63;;;;;;;10.10;100.00;100229.59;5079799;28;20055;-64
2023/03/25 11:19:26;;;;;;;22.90;6.07;;;;;;;10.03;100.00;100226.34;5096791;28;20130;-68
2023/03/25 11:22:15;;;;;;;20.67;4.93;;;;;;;10.01;100.00;100239.41;5096978;27;20403;-65
2023/03/25 11:24:48;;;;;;;20.70;5.43;;;;;;;9.98;100.00;100224.47;5095975;28;20097;-66
2023/03/25 11:27:21;;;;;;;21.83;5.30;;;;;;;9.95;100.00;100229.63;5099578;27;20503;-64
2023/03/25 11:29:54;;;;;;;23.88;5.00;;;;;;;9.94;100.00;100228.00;5116157;28;20047;-64
2023/03/25 11:32:38;;;;;;;21.35;5.00;;;;;;;9.99;100.00;100211.66;5099144;28;20050;-65
2023/03/25 11:35:20;;;;;;;25.20;5.57;;;;;;;10.04;100.00;100222.53;5095637;28;20056;-65
2023/03/25 11:37:55;;;;;;;24.77;5.60;;;;;;;10.05;100.00;100228.78;5102144;27;20055;-66
2023/03/25 11:40:23;;;;;;;20.83;5.32;;;;;;;10.03;100.00;100239.97;5121112;27;20040;-65
2023/03/25 11:42:59;;;;;;;19.77;5.07;;;;;;;10.00;100.00;100244.03;5101447;28;20054;-66
2023/03/25 11:45:44;;;;;;;17.60;5.00;;;;;;;10.01;100.00;100234.78;5096129;28;20448;-65